Time;durP1;ratioP1;P1;durP2;ratioP2;P2;SDS_P1;SDS_P2;PMS_P1;PMS_P2;Temp;Humidity;BMP_temperature;BMP_pressure;BME280_temperature;BME280_humidity;BME280_pressure;Samples;Min_cycle;Max_cycle;Signal;HPM_P1;HPM_P2
2023/05/07 00:00:03;;;;;;;7.50;4.17;;;16.70;74.40;;;;;;5066923;28;21035;-68
2023/05/07 00:02:44;;;;;;;7.50;5.20;;;16.70;74.30;;;;;;5066776;28;20481;-68
2023/05/07 00:05:20;;;;;;;7.03;4.37;;;16.70;74.40;;;;;;5068160;28;20465;-68
2023/05/07 00:07:52;;;;;;;7.40;4.90;;;16.70;74.40;;;;;;5069413;28;20549;-68
2023/05/07 00:10:22;;;;;;;5.90;4.07;;;16.70;74.30;;;;;;5067624;28;20458;-68
2023/05/07 00:12:56;;;;;;;7.83;4.60;;;16.60;74.30;;;;;;5067151;28;20449;-68
2023/05/07 00:15:37;;;;;;;7.20;4.17;;;16.60;74.40;;;;;;5071401;28;20916;-68
2023/05/07 00:18:11;;;;;;;8.63;4.40;;;16.60;74.40;;;;;;5068573;28;20460;-69
2023/05/07 00:20:45;;;;;;;7.43;4.60;;;16.50;74.40;;;;;;5067382;28;20492;-68
2023/05/07 00:23:18;;;;;;;9.80;4.70;;;16.50;74.50;;;;;;5065992;28;20466;-68
2023/05/07 00:26:03;;;;;;;14.60;5.07;;;16.50;74.60;;;;;;5067904;28;20449;-68
2023/05/07 00:28:50;;;;;;;10.60;5.37;;;16.50;74.50;;;;;;5072535;28;20461;-68
2023/05/07 00:31:19;;;;;;;12.57;5.57;;;16.50;74.60;;;;;;5069272;28;20947;-68
2023/05/07 00:33:58;;;;;;;8.30;5.00;;;16.50;74.70;;;;;;5087917;28;20546;-68
2023/05/07 00:36:33;;;;;;;7.70;4.33;;;16.50;74.70;;;;;;5069758;28;20461;-68
2023/05/07 00:39:05;;;;;;;7.07;4.60;;;16.40;74.70;;;;;;5051499;28;20461;-68
2023/05/07 00:41:39;;;;;;;19.20;4.83;;;16.40;74.80;;;;;;5064609;28;20492;-68
2023/05/07 00:44:23;;;;;;;7.80;4.70;;;16.40;74.80;;;;;;5069730;28;20492;-68
2023/05/07 00:46:56;;;;;;;11.00;5.80;;;16.40;74.80;;;;;;5071663;28;20457;-68
2023/05/07 00:49:38;;;;;;;9.73;6.00;;;16.40;74.80;;;;;;5070455;28;20529;-68
2023/05/07 00:52:20;;;;;;;10.27;5.67;;;16.40;74.70;;;;;;5070393;28;20984;-68
2023/05/07 00:55:00;;;;;;;10.93;6.13;;;16.30;74.70;;;;;;5068835;28;20500;-68
2023/05/07 00:57:40;;;;;;;12.03;5.20;;;16.30;74.70;;;;;;5068478;28;20453;-68
2023/05/07 01:00:18;;;;;;;7.87;4.63;;;16.30;74.80;;;;;;5089232;28;20468;-68
2023/05/07 01:02:53;;;;;;;7.17;4.00;;;16.30;74.70;;;;;;5068122;28;20803;-68
2023/05/07 01:05:33;;;;;;;6.87;3.70;;;16.20;74.70;;;;;;5072565;28;20444;-68
2023/05/07 01:11:00;;;;;;;7.30;3.67;;;16.10;74.70;;;;;;5071060;28;20481;-68
2023/05/07 01:13:34;;;;;;;8.03;4.87;;;16.10;74.70;;;;;;5065785;28;20902;-68
2023/05/07 01:16:21;;;;;;;7.13;3.40;;;16.00;74.80;;;;;;5069123;28;20470;-68
2023/05/07 01:18:53;;;;;;;6.60;3.83;;;16.00;74.80;;;;;;5069561;28;20533;-68
2023/05/07 01:21:37;;;;;;;6.17;3.40;;;15.90;74.80;;;;;;5068320;28;20537;-68
2023/05/07 01:24:14;;;;;;;6.50;3.53;;;15.90;74.80;;;;;;5061844;28;20940;-68
2023/05/07 01:26:49;;;;;;;10.17;3.80;;;15.90;74.90;;;;;;5072491;28;20459;-68
2023/05/07 01:29:30;;;;;;;6.80;3.80;;;15.90;75.00;;;;;;5066522;28;21279;-68
2023/05/07 01:32:03;;;;;;;10.40;3.33;;;15.90;75.00;;;;;;5068274;28;20465;-68
2023/05/07 01:34:37;;;;;;;6.73;3.50;;;15.90;75.00;;;;;;5069249;28;20474;-68
2023/05/07 01:37:17;;;;;;;5.77;3.63;;;15.90;74.90;;;;;;5068540;28;20475;-68
2023/05/07 01:39:55;;;;;;;5.63;3.60;;;15.80;74.80;;;;;;5069030;28;20555;-68
2023/05/07 01:42:28;;;;;;;7.23;4.40;;;15.80;75.00;;;;;;5064721;28;20486;-68
2023/05/07 01:45:01;;;;;;;7.17;3.80;;;15.80;75.10;;;;;;5068740;28;20522;-68
2023/05/07 01:47:33;;;;;;;10.60;4.10;;;15.80;75.00;;;;;;5068648;28;20513;-68
2023/05/07 01:50:07;;;;;;;7.70;3.70;;;15.80;75.00;;;;;;5069901;28;20467;-68
2023/05/07 01:52:42;;;;;;;6.40;3.53;;;15.80;75.00;;;;;;5065264;28;20468;-68
2023/05/07 01:55:31;;;;;;;6.93;3.53;;;15.80;74.90;;;;;;5068023;28;20975;-68
2023/05/07 01:58:06;;;;;;;6.43;3.60;;;15.80;74.70;;;;;;5059606;28;20966;-68
2023/05/07 02:00:42;;;;;;;7.73;3.90;;;15.80;74.70;;;;;;5064856;28;20475;-68
2023/05/07 02:03:15;;;;;;;10.43;4.07;;;15.70;74.70;;;;;;5061108;28;20466;-68
2023/05/07 02:06:02;;;;;;;6.33;4.27;;;15.70;74.70;;;;;;5054998;28;20493;-68
2023/05/07 02:08:41;;;;;;;6.70;4.20;;;15.70;74.80;;;;;;5066858;28;20540;-68
2023/05/07 02:11:27;;;;;;;6.40;4.43;;;15.70;74.80;;;;;;5064895;28;20465;-68
2023/05/07 02:14:00;;;;;;;6.50;4.10;;;15.70;74.80;;;;;;5064866;28;21134;-68
2023/05/07 02:16:31;;;;;;;7.57;4.33;;;15.60;74.90;;;;;;5065575;28;20456;-68
2023/05/07 02:19:02;;;;;;;7.20;4.27;;;15.70;74.90;;;;;;5067531;28;20477;-68
2023/05/07 02:21:34;;;;;;;7.03;4.33;;;15.70;74.90;;;;;;5063508;28;20483;-68
2023/05/07 02:24:12;;;;;;;5.80;3.90;;;15.60;75.00;;;;;;5078814;28;20474;-68
2023/05/07 02:26:53;;;;;;;6.00;4.10;;;15.60;74.90;;;;;;5064913;28;20457;-68
2023/05/07 02:29:34;;;;;;;8.33;4.43;;;15.60;74.90;;;;;;5064428;28;20531;-68
2023/05/07 02:32:12;;;;;;;6.87;4.60;;;15.50;75.00;;;;;;5065794;28;20813;-68
2023/05/07 02:34:44;;;;;;;10.00;4.73;;;15.50;75.10;;;;;;5065968;28;20459;-68
2023/05/07 02:37:20;;;;;;;6.77;4.90;;;15.50;75.10;;;;;;5077426;28;20475;-68
2023/05/07 02:39:53;;;;;;;8.20;4.17;;;15.50;75.20;;;;;;5060806;28;20617;-68
2023/05/07 02:42:39;;;;;;;6.43;3.70;;;15.50;75.30;;;;;;5062295;28;20989;-68
2023/05/07 02:45:11;;;;;;;9.83;4.70;;;15.50;75.40;;;;;;5061897;28;20458;-68
2023/05/07 02:47:46;;;;;;;6.80;4.80;;;15.50;75.40;;;;;;5064344;28;20466;-68
2023/05/07 02:50:26;;;;;;;7.90;4.10;;;15.50;75.50;;;;;;5063839;28;20973;-68
2023/05/07 02:53:00;;;;;;;9.23;4.30;;;15.60;75.50;;;;;;5066828;28;20452;-68
2023/05/07 02:55:31;;;;;;;8.37;4.90;;;15.60;75.50;;;;;;5066136;28;20512;-68
2023/05/07 02:58:16;;;;;;;14.80;4.90;;;15.60;75.50;;;;;;5046255;28;20475;-68
2023/05/07 03:00:57;;;;;;;11.33;4.67;;;15.60;75.60;;;;;;5065797;28;20490;-68
2023/05/07 03:03:48;;;;;;;6.97;4.40;;;15.60;75.60;;;;;;5066861;28;20467;-68
2023/05/07 03:06:22;;;;;;;9.33;5.10;;;15.60;75.60;;;;;;5066773;28;20468;-68
2023/05/07 03:08:59;;;;;;;6.43;4.60;;;15.60;75.70;;;;;;5067053;28;20817;-68
2023/05/07 03:11:32;;;;;;;7.20;4.73;;;15.60;75.70;;;;;;5067587;28;20455;-68
2023/05/07 03:14:23;;;;;;;7.80;4.40;;;15.60;75.70;;;;;;5066588;28;20480;-68
2023/05/07 03:17:02;;;;;;;8.50;4.57;;;15.60;75.80;;;;;;5064179;28;20486;-68
2023/05/07 03:19:34;;;;;;;6.90;4.40;;;15.70;75.90;;;;;;5067832;28;20483;-68
2023/05/07 03:22:07;;;;;;;8.20;4.63;;;15.70;75.90;;;;;;5058511;28;20560;-68
2023/05/07 03:24:43;;;;;;;7.83;4.77;;;15.70;75.90;;;;;;5061818;28;20455;-68
2023/05/07 03:27:16;;;;;;;7.10;4.37;;;15.70;75.90;;;;;;5063973;28;20473;-68
2023/05/07 03:29:48;;;;;;;10.00;4.50;;;15.70;75.80;;;;;;5066974;28;20786;-68
2023/05/07 03:32:26;;;;;;;6.33;4.10;;;15.70;75.70;;;;;;5062029;28;20645;-68
2023/05/07 03:34:55;;;;;;;5.87;4.10;;;15.70;75.80;;;;;;5077237;28;20463;-68
2023/05/07 03:37:34;;;;;;;8.77;4.63;;;15.70;75.80;;;;;;5068983;28;20467;-68
2023/05/07 03:40:09;;;;;;;7.53;4.50;;;15.70;75.80;;;;;;5062424;28;20477;-68
2023/05/07 03:42:52;;;;;;;6.60;4.47;;;15.70;75.80;;;;;;5062186;28;20559;-68
2023/05/07 03:45:40;;;;;;;7.20;4.10;;;15.60;75.80;;;;;;5060108;28;20472;-68
2023/05/07 03:48:26;;;;;;;9.50;4.20;;;15.60;75.80;;;;;;5066711;28;20471;-68
2023/05/07 03:50:59;;;;;;;7.57;4.10;;;15.60;75.80;;;;;;5066837;28;20493;-68
2023/05/07 03:53:37;;;;;;;11.63;4.80;;;15.60;75.80;;;;;;5059582;28;20463;-68
2023/05/07 03:56:08;;;;;;;9.13;4.40;;;15.60;75.70;;;;;;5066142;28;20480;-68
2023/05/07 03:58:50;;;;;;;10.37;4.40;;;15.50;75.80;;;;;;5063938;28;20471;-68
2023/05/07 04:01:33;;;;;;;6.70;4.13;;;15.50;75.90;;;;;;5068336;28;20491;-68
2023/05/07 04:04:12;;;;;;;6.60;4.03;;;15.50;76.00;;;;;;5063234;28;20619;-68
2023/05/07 04:06:47;;;;;;;7.23;4.70;;;15.50;76.00;;;;;;5069650;28;20460;-68
2023/05/07 04:09:20;;;;;;;6.40;3.70;;;15.60;75.90;;;;;;5068162;28;20479;-68
2023/05/07 04:12:01;;;;;;;7.13;3.87;;;15.60;75.80;;;;;;5068732;28;20451;-68
2023/05/07 04:14:37;;;;;;;7.40;3.53;;;15.60;75.80;;;;;;5069340;28;20460;-68
2023/05/07 04:17:25;;;;;;;6.93;4.10;;;15.50;75.80;;;;;;5068143;28;20458;-68
2023/05/07 04:20:07;;;;;;;8.20;4.20;;;15.50;75.70;;;;;;5066178;28;20461;-68
2023/05/07 04:22:41;;;;;;;7.30;5.00;;;15.50;75.70;;;;;;5070894;28;20497;-68
2023/05/07 04:25:13;;;;;;;8.33;4.57;;;15.50;75.80;;;;;;5069011;28;20462;-68
2023/05/07 04:27:53;;;;;;;10.43;5.10;;;15.50;75.80;;;;;;5064460;28;20498;-68
2023/05/07 04:30:30;;;;;;;8.10;4.17;;;15.50;75.90;;;;;;5071084;28;20473;-68
2023/05/07 04:33:10;;;;;;;8.97;4.70;;;15.50;75.90;;;;;;5066839;28;20459;-68
2023/05/07 04:35:46;;;;;;;6.97;3.50;;;15.50;75.90;;;;;;5069063;28;20493;-68
2023/05/07 04:38:23;;;;;;;7.17;4.00;;;15.50;76.00;;;;;;5066297;28;20544;-68
2023/05/07 04:40:55;;;;;;;6.80;4.10;;;15.60;76.00;;;;;;5079650;28;20459;-68
2023/05/07 04:43:32;;;;;;;12.03;4.03;;;15.60;76.00;;;;;;5067571;28;20567;-68
2023/05/07 04:46:05;;;;;;;7.47;4.07;;;15.60;76.00;;;;;;5067067;28;20562;-68
2023/05/07 04:48:43;;;;;;;6.63;4.10;;;15.60;76.00;;;;;;5069600;28;20596;-68
2023/05/07 04:51:21;;;;;;;7.10;4.37;;;15.70;76.00;;;;;;5069167;28;20552;-68
2023/05/07 04:53:52;;;;;;;7.57;4.40;;;15.70;76.00;;;;;;5067777;28;20509;-68
2023/05/07 04:56:37;;;;;;;8.03;4.17;;;15.70;76.00;;;;;;5068840;28;20552;-68
2023/05/07 04:59:15;;;;;;;7.60;4.70;;;15.80;76.00;;;;;;5068256;28;20588;-68
2023/05/07 05:01:55;;;;;;;8.23;4.27;;;15.80;76.10;;;;;;5063239;28;21010;-68
2023/05/07 05:04:30;;;;;;;7.30;4.70;;;15.80;76.00;;;;;;5070603;28;20452;-68
2023/05/07 05:07:08;;;;;;;5.80;4.10;;;15.80;76.00;;;;;;5068839;28;20935;-68
2023/05/07 05:09:41;;;;;;;8.67;4.30;;;15.80;76.00;;;;;;5066223;28;20476;-68
2023/05/07 05:12:18;;;;;;;8.83;4.57;;;15.80;76.10;;;;;;5068092;28;20460;-68
2023/05/07 05:14:51;;;;;;;9.33;4.50;;;15.90;76.30;;;;;;5067576;28;20459;-68
2023/05/07 05:17:34;;;;;;;7.50;4.60;;;15.90;76.40;;;;;;5068061;28;20457;-68
2023/05/07 05:20:15;;;;;;;7.70;4.20;;;15.90;76.50;;;;;;5069916;28;20832;-68
2023/05/07 05:22:58;;;;;;;6.33;4.47;;;16.00;76.60;;;;;;5068253;28;20493;-68
2023/05/07 05:25:32;;;;;;;8.80;5.23;;;16.00;76.70;;;;;;5065406;28;20462;-68
2023/05/07 05:28:05;;;;;;;7.60;4.80;;;16.00;76.70;;;;;;5075965;28;20459;-68
2023/05/07 05:30:37;;;;;;;8.47;5.50;;;16.10;76.70;;;;;;5069856;28;20473;-68
2023/05/07 05:33:23;;;;;;;12.17;6.10;;;16.20;76.70;;;;;;5084725;28;20453;-68
2023/05/07 05:36:02;;;;;;;9.63;5.87;;;16.20;76.80;;;;;;5069413;28;20461;-68
2023/05/07 05:38:40;;;;;;;8.63;5.30;;;16.30;76.90;;;;;;5071241;28;20835;-68
2023/05/07 05:41:15;;;;;;;8.63;6.13;;;16.20;77.00;;;;;;5065142;28;20487;-68
2023/05/07 05:43:47;;;;;;;8.57;6.20;;;16.30;77.10;;;;;;5074335;28;20480;-68
2023/05/07 05:46:22;;;;;;;7.80;5.80;;;16.30;77.20;;;;;;5067765;28;20480;-68
2023/05/07 05:49:02;;;;;;;10.70;7.00;;;16.30;77.30;;;;;;5068242;28;20481;-68
2023/05/07 05:51:36;;;;;;;8.03;6.30;;;16.40;77.30;;;;;;5068379;28;20563;-68
2023/05/07 05:54:08;;;;;;;8.73;6.60;;;16.40;77.40;;;;;;5068998;28;20445;-68
2023/05/07 05:56:42;;;;;;;12.83;7.80;;;16.40;77.40;;;;;;5072798;28;20493;-68
2023/05/07 05:59:15;;;;;;;11.70;9.40;;;16.40;77.40;;;;;;5063479;28;20470;-68
2023/05/07 06:02:06;;;;;;;14.70;9.27;;;16.40;77.30;;;;;;5067610;28;20474;-68
2023/05/07 06:04:43;;;;;;;13.53;8.30;;;16.40;77.20;;;;;;5063883;28;20454;-68
2023/05/07 06:07:22;;;;;;;11.20;9.30;;;16.40;77.20;;;;;;5065032;28;20455;-68
2023/05/07 06:09:58;;;;;;;11.83;8.50;;;16.30;77.20;;;;;;5068368;28;20566;-68
2023/05/07 06:12:33;;;;;;;11.47;8.97;;;16.30;77.20;;;;;;5067282;28;20515;-68
2023/05/07 06:15:14;;;;;;;12.17;8.87;;;16.40;77.30;;;;;;5071487;28;20504;-68
2023/05/07 06:17:57;;;;;;;18.17;10.87;;;16.40;77.40;;;;;;5068098;28;20457;-68
2023/05/07 06:20:31;;;;;;;10.97;9.30;;;16.40;77.30;;;;;;5069880;28;20446;-68
2023/05/07 06:23:12;;;;;;;11.80;9.57;;;16.50;77.30;;;;;;5070247;28;20476;-68
2023/05/07 06:25:53;;;;;;;11.40;8.80;;;16.50;77.20;;;;;;5066343;28;20461;-68
2023/05/07 06:28:35;;;;;;;13.27;8.73;;;16.50;76.90;;;;;;5070160;28;20461;-68
2023/05/07 06:31:22;;;;;;;12.07;9.30;;;16.50;76.90;;;;;;5068108;28;20469;-68
2023/05/07 06:36:59;;;;;;;10.43;8.60;;;16.50;76.90;;;;;;5068635;28;20535;-68
2023/05/07 06:39:53;;;;;;;16.63;9.00;;;16.50;76.90;;;;;;5065996;28;20473;-68
2023/05/07 06:42:37;;;;;;;11.37;8.77;;;16.50;77.00;;;;;;5062583;28;20459;-68
2023/05/07 06:45:47;;;;;;;13.10;9.30;;;16.50;77.10;;;;;;5004412;28;20534;-68
2023/05/07 06:48:21;;;;;;;11.80;9.10;;;16.50;77.10;;;;;;4987582;28;20460;-68
2023/05/07 06:51:04;;;;;;;10.90;9.03;;;16.60;76.90;;;;;;5008365;28;20464;-68
2023/05/07 06:53:36;;;;;;;12.40;9.13;;;16.70;76.90;;;;;;5024698;28;20607;-69
2023/05/07 06:56:13;;;;;;;12.10;9.40;;;16.70;76.60;;;;;;5066892;28;20478;-68
2023/05/07 06:58:49;;;;;;;11.30;8.73;;;16.80;76.60;;;;;;5067265;28;20554;-68
2023/05/07 07:01:23;;;;;;;12.47;9.37;;;16.80;76.40;;;;;;5060873;28;21076;-68
2023/05/07 07:04:03;;;;;;;14.23;9.27;;;16.90;76.40;;;;;;5070102;28;20808;-68
2023/05/07 07:06:33;;;;;;;14.60;10.40;;;16.90;76.30;;;;;;5063738;28;20459;-68
2023/05/07 07:09:11;;;;;;;11.97;10.03;;;17.00;76.20;;;;;;5065556;28;21014;-68
2023/05/07 07:11:45;;;;;;;11.00;8.80;;;17.10;76.10;;;;;;5063809;28;20868;-68
2023/05/07 07:14:16;;;;;;;12.20;9.17;;;17.20;76.10;;;;;;5064195;28;20461;-68
2023/05/07 07:16:49;;;;;;;11.60;8.10;;;17.20;75.90;;;;;;5064549;28;20496;-68
2023/05/07 07:19:30;;;;;;;10.27;8.67;;;17.30;75.90;;;;;;5063853;28;20552;-68
2023/05/07 07:22:03;;;;;;;13.27;9.67;;;17.30;75.80;;;;;;5066784;28;20875;-68
2023/05/07 07:24:37;;;;;;;12.70;9.20;;;17.40;75.50;;;;;;5065052;28;20485;-68
2023/05/07 07:27:11;;;;;;;12.47;8.70;;;17.50;75.30;;;;;;5067428;28;20483;-68
2023/05/07 07:29:40;;;;;;;13.73;9.50;;;17.50;75.10;;;;;;5064592;28;20807;-68
2023/05/07 07:32:18;;;;;;;13.23;9.60;;;17.50;75.00;;;;;;5052538;28;20573;-68
2023/05/07 07:34:56;;;;;;;13.13;10.13;;;17.60;74.80;;;;;;5061620;28;20464;-68
2023/05/07 07:37:29;;;;;;;12.67;9.60;;;17.60;74.60;;;;;;5066230;28;20465;-68
2023/05/07 07:40:04;;;;;;;11.50;8.73;;;17.70;74.30;;;;;;5071751;28;20472;-68
2023/05/07 07:42:45;;;;;;;12.90;9.57;;;17.70;74.10;;;;;;5062074;28;20546;-68
2023/05/07 07:45:16;;;;;;;11.60;9.10;;;17.70;73.90;;;;;;5085344;28;20878;-68
2023/05/07 07:47:51;;;;;;;15.27;12.43;;;17.70;73.90;;;;;;5074938;28;20454;-68
2023/05/07 07:50:24;;;;;;;11.50;10.30;;;17.70;73.70;;;;;;5071579;28;20959;-68
2023/05/07 07:53:17;;;;;;;12.70;9.70;;;17.70;73.60;;;;;;5069581;28;21072;-68
2023/05/07 07:55:47;;;;;;;11.13;9.43;;;17.70;73.60;;;;;;5069418;28;20464;-68
2023/05/07 07:58:32;;;;;;;12.43;9.70;;;17.70;73.70;;;;;;5067453;28;20451;-68
2023/05/07 08:01:05;;;;;;;13.63;9.93;;;17.70;73.70;;;;;;5073111;28;20481;-68
2023/05/07 08:03:43;;;;;;;12.70;10.17;;;17.70;73.70;;;;;;5067184;28;20470;-67
2023/05/07 08:06:17;;;;;;;13.77;10.17;;;17.70;73.70;;;;;;5072114;28;20445;-67
2023/05/07 08:08:57;;;;;;;15.13;12.03;;;17.80;73.70;;;;;;5064020;28;21193;-68
2023/05/07 08:11:30;;;;;;;15.90;12.43;;;17.80;73.60;;;;;;5067354;28;20462;-67
2023/05/07 08:14:07;;;;;;;14.23;10.50;;;17.90;73.50;;;;;;5071676;28;20465;-68
2023/05/07 08:16:42;;;;;;;12.60;9.77;;;17.90;73.50;;;;;;5073642;28;20543;-68
2023/05/07 08:19:16;;;;;;;12.80;10.13;;;18.00;73.40;;;;;;5070664;28;20960;-68
2023/05/07 08:21:51;;;;;;;15.23;10.00;;;18.00;73.40;;;;;;5064692;28;20462;-68
2023/05/07 08:24:26;;;;;;;15.80;11.07;;;18.00;73.40;;;;;;5068828;28;20490;-68
2023/05/07 08:27:07;;;;;;;13.33;10.37;;;18.00;73.40;;;;;;5064340;28;20481;-68
2023/05/07 08:29:47;;;;;;;15.83;10.80;;;18.10;73.30;;;;;;5070027;28;20455;-68
2023/05/07 08:32:24;;;;;;;14.10;10.63;;;18.10;73.20;;;;;;5070830;28;20470;-68
2023/05/07 08:34:56;;;;;;;14.00;10.40;;;18.10;73.20;;;;;;5071997;28;20512;-68
2023/05/07 08:37:32;;;;;;;13.40;11.10;;;18.10;73.10;;;;;;5069327;28;20928;-68
2023/05/07 08:40:03;;;;;;;14.43;11.20;;;18.20;73.10;;;;;;5067173;28;20548;-68
2023/05/07 08:42:43;;;;;;;15.03;11.20;;;18.20;73.10;;;;;;5070802;28;20471;-68
2023/05/07 08:45:21;;;;;;;14.60;11.17;;;18.30;73.00;;;;;;5079644;28;21194;-68
2023/05/07 08:48:02;;;;;;;13.47;11.10;;;18.30;73.00;;;;;;5066598;28;20869;-68
2023/05/07 08:50:46;;;;;;;12.97;10.40;;;18.40;72.90;;;;;;5067171;28;20475;-68
2023/05/07 08:53:21;;;;;;;17.63;11.00;;;18.50;72.70;;;;;;5066141;28;20463;-68
2023/05/07 08:55:58;;;;;;;13.57;11.30;;;18.50;72.70;;;;;;5072482;28;20452;-69
2023/05/07 08:58:32;;;;;;;15.17;11.00;;;18.50;72.60;;;;;;5069152;28;20469;-68
2023/05/07 09:01:17;;;;;;;11.10;9.57;;;18.60;72.50;;;;;;5070817;28;20605;-67
2023/05/07 09:03:56;;;;;;;14.57;10.27;;;18.60;72.40;;;;;;5061621;28;20905;-67
2023/05/07 09:06:37;;;;;;;13.67;11.13;;;18.70;72.50;;;;;;5066927;28;20468;-67
2023/05/07 09:09:18;;;;;;;15.30;11.37;;;18.80;72.40;;;;;;5072040;28;20456;-67
2023/05/07 09:12:02;;;;;;;14.60;12.17;;;18.90;72.20;;;;;;5063914;28;20585;-67
2023/05/07 09:14:39;;;;;;;14.00;10.80;;;18.90;72.00;;;;;;5069942;28;20456;-67
2023/05/07 09:17:16;;;;;;;13.80;10.93;;;18.90;72.00;;;;;;5047856;28;20492;-67
2023/05/07 09:19:51;;;;;;;14.50;11.80;;;18.90;72.00;;;;;;5064334;28;20815;-68
2023/05/07 09:22:22;;;;;;;16.10;11.30;;;18.90;72.10;;;;;;5066126;28;20459;-66
2023/05/07 09:25:01;;;;;;;15.23;11.53;;;18.90;72.00;;;;;;5063365;28;20509;-67
2023/05/07 09:27:39;;;;;;;13.77;10.57;;;19.00;72.00;;;;;;5070487;28;20470;-67
2023/05/07 09:30:17;;;;;;;15.17;12.07;;;19.00;72.10;;;;;;5062731;28;21410;-67
2023/05/07 09:33:01;;;;;;;13.27;11.27;;;19.10;72.00;;;;;;5059820;28;20463;-66
2023/05/07 09:35:34;;;;;;;12.90;10.40;;;19.10;72.00;;;;;;5066823;28;20464;-65
2023/05/07 09:38:14;;;;;;;13.63;11.43;;;19.20;72.00;;;;;;5069504;28;20580;-66
2023/05/07 09:40:44;;;;;;;17.50;11.30;;;19.30;71.70;;;;;;5066722;28;20467;-66
2023/05/07 09:43:20;;;;;;;17.60;11.70;;;19.30;71.70;;;;;;5066752;28;20511;-66
2023/05/07 09:46:07;;;;;;;13.73;10.90;;;19.30;71.60;;;;;;5065396;28;20561;-66
2023/05/07 09:48:48;;;;;;;14.20;10.63;;;19.30;71.80;;;;;;5061213;28;20469;-66
2023/05/07 09:51:27;;;;;;;13.83;10.03;;;19.40;71.80;;;;;;5067253;28;20465;-66
2023/05/07 09:54:07;;;;;;;13.00;9.97;;;19.50;71.80;;;;;;5062892;28;20551;-66
2023/05/07 09:56:44;;;;;;;13.50;9.97;;;19.60;71.60;;;;;;5065539;28;20497;-66
2023/05/07 09:59:19;;;;;;;14.00;10.40;;;19.70;71.40;;;;;;5068342;28;20466;-66
2023/05/07 10:02:08;;;;;;;13.97;10.97;;;19.70;71.20;;;;;;5066050;28;20468;-66
2023/05/07 10:04:51;;;;;;;12.80;10.60;;;19.80;71.00;;;;;;5067448;28;20469;-66
2023/05/07 10:07:31;;;;;;;13.27;10.93;;;19.90;70.90;;;;;;5067600;28;20515;-66
2023/05/07 10:10:10;;;;;;;15.50;11.57;;;19.90;71.00;;;;;;5070062;28;20464;-66
2023/05/07 10:15:37;;;;;;;11.67;9.87;;;20.00;70.80;;;;;;5079652;28;20929;-66
2023/05/07 10:18:09;;;;;;;13.10;10.83;;;20.00;70.80;;;;;;5062330;28;20461;-66
2023/05/07 10:20:49;;;;;;;12.30;9.70;;;20.10;70.70;;;;;;5059843;28;20465;-66
2023/05/07 10:23:27;;;;;;;13.47;10.33;;;20.10;70.50;;;;;;5064969;28;21134;-69
2023/05/07 10:26:00;;;;;;;12.27;9.07;;;20.10;70.40;;;;;;5083376;28;20492;-66
2023/05/07 10:28:43;;;;;;;14.27;10.20;;;20.10;70.30;;;;;;5064471;28;20552;-66
2023/05/07 10:31:44;;;;;;;13.17;10.30;;;20.20;70.30;;;;;;5046659;28;20551;-66
2023/05/07 10:34:23;;;;;;;13.00;10.40;;;20.30;70.50;;;;;;5063281;28;20551;-67
2023/05/07 10:37:03;;;;;;;13.37;9.57;;;20.40;70.50;;;;;;5051305;28;20550;-66
2023/05/07 10:39:36;;;;;;;13.37;9.87;;;20.40;70.30;;;;;;5065985;28;20470;-66
2023/05/07 10:42:13;;;;;;;10.67;8.83;;;20.50;70.10;;;;;;5081092;28;20501;-66
2023/05/07 10:44:54;;;;;;;16.53;9.63;;;20.50;70.00;;;;;;5065178;28;20925;-66
2023/05/07 10:47:32;;;;;;;17.53;11.20;;;20.50;69.90;;;;;;5068154;28;20445;-66
2023/05/07 10:50:23;;;;;;;12.37;9.87;;;20.50;69.90;;;;;;5064376;28;20841;-66
2023/05/07 10:53:31;;;;;;;14.37;9.10;;;20.50;69.70;;;;;;5057561;28;20465;-66
2023/05/07 10:56:33;;;;;;;17.73;9.90;;;20.50;69.70;;;;;;5063542;28;20457;-67
2023/05/07 10:59:40;;;;;;;12.40;9.20;;;20.50;69.80;;;;;;5026129;28;20453;-68
2023/05/07 11:02:21;;;;;;;15.80;9.70;;;20.60;69.60;;;;;;5066208;28;20477;-67
2023/05/07 11:05:24;;;;;;;13.00;9.23;;;20.60;69.60;;;;;;5066199;28;20513;-67
2023/05/07 11:08:21;;;;;;;15.60;10.20;;;20.60;69.60;;;;;;5072010;28;20515;-67
2023/05/07 11:11:16;;;;;;;12.83;8.90;;;20.70;69.50;;;;;;5065055;28;20489;-68
2023/05/07 11:14:13;;;;;;;12.20;9.57;;;20.80;69.30;;;;;;5067934;28;21014;-68
2023/05/07 11:17:03;;;;;;;12.00;8.53;;;20.80;69.00;;;;;;5069042;28;20460;-67
2023/05/07 11:19:57;;;;;;;11.97;7.87;;;20.90;68.80;;;;;;5071047;28;20475;-67
2023/05/07 11:23:03;;;;;;;11.50;7.47;;;20.90;68.70;;;;;;5053598;28;20461;-68
2023/05/07 11:25:42;;;;;;;10.17;8.57;;;21.00;68.70;;;;;;5066639;28;20481;-67
2023/05/07 11:28:31;;;;;;;10.40;7.90;;;21.00;68.40;;;;;;5063396;28;20472;-67
2023/05/07 11:31:16;;;;;;;12.67;8.10;;;21.10;68.20;;;;;;5066594;28;20469;-68
2023/05/07 11:33:53;;;;;;;12.53;7.30;;;21.10;68.10;;;;;;5066918;28;20491;-67
2023/05/07 11:36:27;;;;;;;10.80;7.47;;;21.20;68.10;;;;;;5070106;28;20438;-67
2023/05/07 11:38:59;;;;;;;9.00;7.27;;;21.20;67.90;;;;;;5064946;28;20451;-67
2023/05/07 11:41:42;;;;;;;12.10;8.50;;;21.30;67.80;;;;;;5065415;28;20492;-67
2023/05/07 11:44:23;;;;;;;9.90;7.30;;;21.30;67.70;;;;;;5066325;28;20794;-68
2023/05/07 11:46:53;;;;;;;9.70;7.50;;;21.40;67.40;;;;;;5067867;28;20489;-67
2023/05/07 11:49:31;;;;;;;11.33;7.40;;;21.40;67.40;;;;;;5068416;28;20457;-67
2023/05/07 11:52:12;;;;;;;10.27;6.67;;;21.50;67.40;;;;;;5063375;28;20481;-67
2023/05/07 11:54:54;;;;;;;12.20;7.23;;;21.60;67.20;;;;;;5067355;28;20465;-67
2023/05/07 11:57:32;;;;;;;10.50;6.90;;;21.70;66.90;;;;;;5066906;28;20471;-67
2023/05/07 12:03:02;;;;;;;10.40;6.80;;;21.80;67.00;;;;;;5068011;28;20469;-67
2023/05/07 12:05:33;;;;;;;11.07;7.10;;;21.80;66.80;;;;;;5065921;28;20493;-67
2023/05/07 12:08:09;;;;;;;9.70;6.20;;;21.90;66.60;;;;;;5069626;28;20457;-67
2023/05/07 12:10:43;;;;;;;10.57;6.80;;;21.90;66.40;;;;;;5066772;28;20774;-67
2023/05/07 12:13:23;;;;;;;11.17;6.80;;;21.90;66.20;;;;;;5068865;28;20811;-67
2023/05/07 12:16:03;;;;;;;9.23;6.93;;;22.00;66.10;;;;;;5065850;28;20454;-67
2023/05/07 12:18:38;;;;;;;10.80;6.70;;;22.00;66.00;;;;;;5069018;28;20464;-67
2023/05/07 12:21:09;;;;;;;10.20;6.70;;;22.10;66.00;;;;;;5068874;28;20458;-67
2023/05/07 12:23:47;;;;;;;9.37;6.67;;;22.10;66.00;;;;;;5071352;28;20905;-67
2023/05/07 12:26:22;;;;;;;7.83;5.60;;;22.20;65.70;;;;;;5070668;28;21241;-67
2023/05/07 12:28:55;;;;;;;7.97;5.70;;;22.20;65.50;;;;;;5071956;28;20491;-67
2023/05/07 12:31:31;;;;;;;8.93;5.80;;;22.20;65.50;;;;;;5071567;28;20477;-67
2023/05/07 12:34:08;;;;;;;8.63;5.90;;;22.20;65.40;;;;;;5069843;28;21033;-67
2023/05/07 12:36:48;;;;;;;8.80;5.60;;;22.30;65.30;;;;;;5070318;28;21061;-67
2023/05/07 12:39:22;;;;;;;10.13;6.07;;;22.30;64.90;;;;;;5071237;28;20838;-67
2023/05/07 12:42:04;;;;;;;11.60;6.30;;;22.40;64.70;;;;;;5070531;28;20453;-67
2023/05/07 12:44:36;;;;;;;10.10;5.20;;;22.50;64.40;;;;;;5071326;28;20561;-67
2023/05/07 12:47:15;;;;;;;8.50;5.90;;;22.50;64.40;;;;;;5069131;28;21185;-67
2023/05/07 12:49:55;;;;;;;6.90;4.93;;;22.60;64.30;;;;;;5071486;28;20464;-68
2023/05/07 12:52:28;;;;;;;8.90;5.50;;;22.60;64.40;;;;;;5069571;28;20457;-67
2023/05/07 12:55:09;;;;;;;7.80;6.00;;;22.60;64.20;;;;;;5069500;28;20876;-67
2023/05/07 12:57:51;;;;;;;8.63;6.17;;;22.70;63.70;;;;;;5069053;28;20461;-67
2023/05/07 13:00:39;;;;;;;8.37;5.60;;;22.70;63.80;;;;;;5070220;28;20853;-67
2023/05/07 13:03:13;;;;;;;9.40;5.07;;;22.80;63.60;;;;;;5069031;28;20465;-67
2023/05/07 13:05:45;;;;;;;7.53;4.73;;;22.80;63.30;;;;;;5070447;28;20935;-67
2023/05/07 13:08:33;;;;;;;9.87;5.23;;;22.90;63.00;;;;;;5070147;28;20456;-68
2023/05/07 13:11:08;;;;;;;7.43;4.57;;;22.90;62.80;;;;;;5068104;28;20469;-67
2023/05/07 13:13:46;;;;;;;6.97;4.50;;;22.90;62.70;;;;;;5069018;28;21023;-67
2023/05/07 13:16:22;;;;;;;6.70;4.83;;;22.90;62.50;;;;;;5069314;28;20450;-68
2023/05/07 13:19:19;;;;;;;7.50;4.33;;;22.90;62.50;;;;;;5071175;28;20556;-67
2023/05/07 13:21:57;;;;;;;7.80;4.90;;;22.90;62.20;;;;;;5070223;28;20920;-67
2023/05/07 13:24:30;;;;;;;10.03;5.13;;;23.00;62.00;;;;;;5075063;28;20461;-67
2023/05/07 13:27:03;;;;;;;7.10;4.50;;;23.10;61.80;;;;;;5071422;28;20485;-67
2023/05/07 13:29:37;;;;;;;7.60;4.77;;;23.10;61.60;;;;;;5089889;28;20454;-67
2023/05/07 13:32:16;;;;;;;8.20;4.10;;;23.10;61.30;;;;;;5065780;28;20847;-69
2023/05/07 13:34:51;;;;;;;7.07;4.00;;;23.10;61.30;;;;;;5070219;28;20461;-67
2023/05/07 13:37:21;;;;;;;5.90;3.70;;;23.20;60.80;;;;;;5070465;28;20531;-67
2023/05/07 13:39:58;;;;;;;6.33;3.83;;;23.10;60.70;;;;;;5071927;28;20576;-67
2023/05/07 13:42:34;;;;;;;6.77;4.30;;;23.20;60.70;;;;;;5071730;28;20485;-67
2023/05/07 13:45:05;;;;;;;5.90;3.80;;;23.20;60.70;;;;;;5071266;28;20454;-67
2023/05/07 13:47:43;;;;;;;5.90;3.30;;;23.20;60.50;;;;;;5067794;28;20477;-67